Time;durP1;ratioP1;P1;durP2;ratioP2;P2;SDS_P1;SDS_P2;PMS_P1;PMS_P2;Temp;Humidity;BMP_temperature;BMP_pressure;BME280_temperature;BME280_humidity;BME280_pressure;Samples;Min_cycle;Max_cycle;Signal;HPM_P1;HPM_P2
2023/04/17 00:01:43;;;;;;;0.20;0.20;;;;;;;7.81;98.62;97910.06;5025010;28;20046;-69
2023/04/17 00:04:11;;;;;;;0.20;0.20;;;;;;;7.86;98.63;97912.25;5030215;28;20045;-69
2023/04/17 00:06:42;;;;;;;0.20;0.20;;;;;;;7.84;98.68;97903.59;5031475;28;20133;-69
2023/04/17 00:09:09;;;;;;;0.40;0.40;;;;;;;7.80;98.75;97905.75;5032013;28;20052;-69
2023/04/17 00:11:38;;;;;;;0.30;0.30;;;;;;;7.85;98.77;97898.13;5031203;28;20045;-69
2023/04/17 00:14:06;;;;;;;0.30;0.30;;;;;;;7.84;98.55;97911.56;5028385;28;20373;-69
2023/04/17 00:16:33;;;;;;;0.52;0.52;;;;;;;7.85;98.26;97908.75;5026539;28;20045;-69
2023/04/17 00:19:01;;;;;;;0.30;0.30;;;;;;;7.81;98.68;97911.91;5030643;28;20125;-69
2023/04/17 00:21:30;;;;;;;0.40;0.40;;;;;;;7.77;99.04;97906.13;5030433;28;20041;-69
2023/04/17 00:23:58;;;;;;;0.43;0.43;;;;;;;7.76;99.13;97901.81;5031469;28;20092;-68
2023/04/17 00:26:26;;;;;;;0.30;0.30;;;;;;;7.70;99.42;97908.59;5029317;28;20041;-67
2023/04/17 00:28:55;;;;;;;0.30;0.30;;;;;;;7.68;99.48;97907.94;5031623;28;20072;-67
2023/04/17 00:31:22;;;;;;;0.90;0.90;;;;;;;7.71;99.26;97898.81;5027512;28;20042;-67
2023/04/17 00:33:50;;;;;;;0.75;0.75;;;;;;;7.72;99.70;97901.31;5030442;28;20099;-68
2023/04/17 00:36:17;;;;;;;0.30;0.30;;;;;;;7.79;99.51;97900.63;5029824;28;20447;-69
2023/04/17 00:38:45;;;;;;;0.20;0.20;;;;;;;7.75;99.51;97892.16;5030137;28;20045;-69
2023/04/17 00:41:12;;;;;;;0.43;0.43;;;;;;;7.80;99.56;97894.31;5027025;28;20107;-71
2023/04/17 00:43:40;;;;;;;0.20;0.20;;;;;;;7.70;99.87;97899.81;5027997;28;20049;-70
2023/04/17 00:46:09;;;;;;;0.28;0.28;;;;;;;7.77;99.62;97900.81;5029905;28;20049;-70
2023/04/17 00:48:37;;;;;;;0.30;0.30;;;;;;;7.76;99.50;97898.31;5030211;28;20136;-70
2023/04/17 00:51:05;;;;;;;0.43;0.43;;;;;;;7.63;100.00;97898.81;5025385;28;20095;-70
2023/04/17 00:53:33;;;;;;;0.43;0.43;;;;;;;7.68;100.00;97896.50;5028936;28;20045;-69
2023/04/17 00:56:01;;;;;;;0.30;0.30;;;;;;;7.74;99.70;97901.13;5028993;28;20592;-69
2023/04/17 00:58:28;;;;;;;0.20;0.20;;;;;;;7.74;99.49;97893.16;5028723;28;20037;-69
2023/04/17 01:00:56;;;;;;;0.40;0.40;;;;;;;7.72;99.36;97896.00;5021435;28;20239;-69
2023/04/17 01:03:28;;;;;;;0.40;0.40;;;;;;;7.69;99.46;97898.97;5024034;28;20132;-68
2023/04/17 01:05:56;;;;;;;0.52;0.52;;;;;;;7.69;100.00;97895.47;5029958;28;20060;-69
2023/04/17 01:08:23;;;;;;;0.32;0.32;;;;;;;7.71;99.68;97893.50;5026959;28;20393;-69
2023/04/17 01:10:51;;;;;;;0.30;0.30;;;;;;;7.70;99.49;97895.31;5019807;28;20116;-71
2023/04/17 01:13:20;;;;;;;0.43;0.43;;;;;;;7.67;100.00;97895.69;5031849;28;20447;-71
2023/04/17 01:15:49;;;;;;;0.50;0.50;;;;;;;7.69;99.98;97896.31;5026815;28;20046;-69
2023/04/17 01:18:16;;;;;;;0.30;0.30;;;;;;;7.72;99.88;97897.81;5028901;28;20033;-69
2023/04/17 01:20:46;;;;;;;0.65;0.65;;;;;;;7.74;99.27;97901.97;5029366;28;20057;-71
2023/04/17 01:23:15;;;;;;;0.65;0.65;;;;;;;7.83;98.57;97899.28;5021595;28;20101;-69
2023/04/17 01:25:46;;;;;;;0.45;0.45;;;;;;;7.68;98.56;97905.28;5029477;28;20046;-69
2023/04/17 01:28:13;;;;;;;0.45;0.45;;;;;;;7.65;98.96;97900.31;5017214;28;20034;-69
2023/04/17 01:30:41;;;;;;;0.52;0.52;;;;;;;7.64;99.35;97903.16;5023696;28;20470;-69
2023/04/17 01:33:09;;;;;;;0.30;0.30;;;;;;;7.62;99.81;97902.47;5029101;28;20175;-68
2023/04/17 01:35:37;;;;;;;0.40;0.40;;;;;;;7.68;99.67;97907.13;5029591;28;20045;-70
2023/04/17 01:38:04;;;;;;;0.30;0.30;;;;;;;7.59;99.52;97903.63;5026809;28;20053;-68
2023/04/17 01:40:32;;;;;;;0.50;0.50;;;;;;;7.52;99.60;97905.31;5024026;28;20107;-68
2023/04/17 01:43:01;;;;;;;0.30;0.30;;;;;;;7.46;100.00;97905.16;5031299;28;20083;-68
2023/04/17 01:45:28;;;;;;;0.30;0.30;;;;;;;7.53;99.78;97904.31;5029803;28;20041;-68
2023/04/17 01:47:56;;;;;;;0.20;0.20;;;;;;;7.55;99.43;97899.69;5027855;28;20092;-69
2023/04/17 01:50:24;;;;;;;0.40;0.40;;;;;;;7.49;99.64;97912.78;5022591;28;20653;-69
2023/04/17 01:52:51;;;;;;;0.40;0.40;;;;;;;7.49;99.47;97908.28;5026830;28;20447;-70
2023/04/17 01:55:19;;;;;;;0.52;0.52;;;;;;;7.55;99.30;97912.97;5022253;28;20416;-70
2023/04/17 01:57:48;;;;;;;0.38;0.38;;;;;;;7.54;99.09;97911.28;5029569;28;20493;-69
2023/04/17 02:00:18;;;;;;;0.30;0.30;;;;;;;7.56;99.17;97905.81;5029726;28;20511;-69
2023/04/17 02:02:46;;;;;;;0.30;0.30;;;;;;;7.50;99.21;97906.47;5025903;28;20049;-69
2023/04/17 02:05:13;;;;;;;0.20;0.20;;;;;;;7.57;99.19;97907.47;5021068;28;20049;-69
2023/04/17 02:07:43;;;;;;;0.40;0.40;;;;;;;7.56;99.18;97908.47;5027526;28;20050;-69
2023/04/17 02:10:11;;;;;;;0.32;0.32;;;;;;;7.57;99.45;97910.97;5023697;28;20169;-69
2023/04/17 02:12:38;;;;;;;0.40;0.40;;;;;;;7.51;99.34;97908.13;5014603;28;20123;-69
2023/04/17 02:15:07;;;;;;;0.38;0.38;;;;;;;7.52;99.67;97918.59;5019771;28;20108;-69
2023/04/17 02:17:36;;;;;;;0.52;0.52;;;;;;;7.53;99.71;97914.13;5021496;28;20534;-71
2023/04/17 02:20:06;;;;;;;0.43;0.43;;;;;;;7.53;99.71;97916.78;5022156;28;20041;-69
2023/04/17 02:22:33;;;;;;;0.30;0.30;;;;;;;7.50;99.88;97917.94;5031126;28;20439;-69
2023/04/17 02:25:01;;;;;;;0.22;0.22;;;;;;;7.55;99.90;97922.75;5021165;28;20049;-71
2023/04/17 02:27:29;;;;;;;0.32;0.32;;;;;;;7.53;98.77;97925.56;5022894;28;20045;-69
2023/04/17 02:29:57;;;;;;;0.52;0.52;;;;;;;7.41;99.08;97923.41;5029707;28;20038;-69
2023/04/17 02:32:25;;;;;;;0.32;0.32;;;;;;;7.43;99.45;97916.13;5024455;28;20508;-69
2023/04/17 02:34:55;;;;;;;0.43;0.43;;;;;;;7.37;99.53;97917.63;5030687;28;20048;-70
2023/04/17 02:37:22;;;;;;;0.50;0.50;;;;;;;7.38;99.24;97920.09;5027325;28;20854;-69
2023/04/17 02:39:52;;;;;;;0.30;0.30;;;;;;;7.42;99.12;97919.75;5028856;28;20076;-70
2023/04/17 02:42:19;;;;;;;0.30;0.30;;;;;;;7.47;99.32;97923.59;5016805;28;20512;-70
2023/04/17 02:44:47;;;;;;;0.45;0.45;;;;;;;7.45;99.21;97920.28;5024404;28;20061;-70
2023/04/17 02:47:14;;;;;;;0.28;0.28;;;;;;;7.50;99.17;97920.56;5022991;28;20060;-69
2023/04/17 02:49:42;;;;;;;0.25;0.25;;;;;;;7.49;98.86;97921.56;5033059;28;20045;-69
2023/04/17 02:52:11;;;;;;;0.20;0.20;;;;;;;7.52;98.91;97918.59;5030722;28;20500;-70
2023/04/17 02:54:38;;;;;;;0.30;0.30;;;;;;;7.44;98.79;97915.94;5031921;28;20045;-71
2023/04/17 02:57:07;;;;;;;0.32;0.32;;;;;;;7.48;98.77;97919.91;5031728;28;20524;-70
2023/04/17 02:59:35;;;;;;;0.30;0.30;;;;;;;7.53;98.79;97920.25;5020008;28;20064;-70
2023/04/17 03:02:03;;;;;;;0.32;0.32;;;;;;;7.54;98.60;97924.56;5028444;28;20056;-70
2023/04/17 03:04:33;;;;;;;0.30;0.30;;;;;;;7.56;98.74;97919.94;5029100;28;20072;-70
2023/04/17 03:07:00;;;;;;;0.43;0.43;;;;;;;7.60;98.66;97923.88;5027980;28;20053;-70
2023/04/17 03:09:29;;;;;;;0.20;0.20;;;;;;;7.55;98.46;97920.94;5024548;28;20084;-70
2023/04/17 03:11:57;;;;;;;0.32;0.32;;;;;;;7.56;98.22;97922.59;5028070;28;20064;-70
2023/04/17 03:14:24;;;;;;;0.30;0.30;;;;;;;7.46;98.48;97919.28;5031948;28;20045;-70
2023/04/17 03:16:52;;;;;;;0.20;0.20;;;;;;;7.50;98.78;97917.94;5024307;28;20076;-70
2023/04/17 03:19:20;;;;;;;0.22;0.22;;;;;;;7.51;97.85;97927.56;5033424;28;20120;-70
2023/04/17 03:21:47;;;;;;;0.13;0.13;;;;;;;7.48;97.40;97921.75;5025087;28;20045;-70
2023/04/17 03:24:15;;;;;;;0.52;0.52;;;;;;;7.51;97.36;97922.25;5020997;28;20054;-70
2023/04/17 03:26:44;;;;;;;0.20;0.20;;;;;;;7.39;96.84;97928.88;5022159;28;20493;-70
2023/04/17 03:29:17;;;;;;;0.20;0.20;;;;;;;7.42;96.96;97933.03;5029402;28;20037;-70
2023/04/17 03:31:44;;;;;;;0.10;0.10;;;;;;;7.29;97.26;97931.69;5022777;28;20050;-70
2023/04/17 03:34:12;;;;;;;0.30;0.30;;;;;;;7.25;97.10;97924.25;5025025;28;20056;-69
2023/04/17 03:36:41;;;;;;;0.22;0.22;;;;;;;7.30;96.76;97932.53;5030330;28;20554;-69
2023/04/17 03:39:08;;;;;;;0.13;0.13;;;;;;;7.28;97.32;97927.38;5019356;28;20041;-69
2023/04/17 03:41:37;;;;;;;0.20;0.20;;;;;;;7.32;97.30;97928.72;5027846;28;20069;-70
2023/04/17 03:44:07;;;;;;;0.20;0.20;;;;;;;7.33;97.36;97934.88;5025196;28;20045;-70
2023/04/17 03:46:35;;;;;;;0.10;0.10;;;;;;;7.32;97.20;97931.38;5026400;28;20087;-70
2023/04/17 03:49:02;;;;;;;0.10;0.10;;;;;;;7.35;97.14;97936.38;5027506;28;20033;-69
2023/04/17 03:51:31;;;;;;;0.13;0.13;;;;;;;7.34;97.15;97931.22;5027835;28;20045;-70
2023/04/17 03:54:06;;;;;;;0.22;0.22;;;;;;;7.41;96.81;97939.34;5029423;28;20053;-70
2023/04/17 03:56:34;;;;;;;0.22;0.22;;;;;;;7.40;96.97;97935.84;5024328;28;20052;-69
2023/04/17 03:59:03;;;;;;;0.40;0.40;;;;;;;7.37;97.10;97930.91;5030359;28;20045;-69
2023/04/17 04:01:37;;;;;;;0.32;0.32;;;;;;;7.35;96.37;97939.03;5023992;28;20448;-70
2023/04/17 04:04:13;;;;;;;0.20;0.20;;;;;;;7.37;96.65;97941.53;5027331;28;20049;-70
2023/04/17 04:06:42;;;;;;;0.20;0.20;;;;;;;7.38;96.78;97943.16;5025670;28;20054;-70
2023/04/17 04:09:14;;;;;;;0.38;0.38;;;;;;;7.40;96.99;97945.66;5026891;28;20469;-70
2023/04/17 04:11:42;;;;;;;0.15;0.15;;;;;;;7.38;97.03;97948.47;5019121;28;20132;-70
2023/04/17 04:14:10;;;;;;;0.20;0.20;;;;;;;7.38;96.89;97948.47;5029601;28;20122;-70
2023/04/17 04:16:39;;;;;;;0.30;0.30;;;;;;;7.39;97.04;97944.81;5025484;28;20416;-70
2023/04/17 04:19:10;;;;;;;0.20;0.20;;;;;;;7.38;96.72;97945.81;5027345;28;20041;-70
2023/04/17 04:21:38;;;;;;;0.20;0.20;;;;;;;7.39;96.75;97950.13;5032806;28;20034;-70
2023/04/17 04:24:12;;;;;;;0.20;0.20;;;;;;;7.34;96.78;97947.97;5025585;28;20041;-70
2023/04/17 04:26:42;;;;;;;;;;;;;;;7.37;96.86;97949.50;5024796;28;20046;-70
2023/04/17 04:29:10;;;;;;;0.20;0.20;;;;;;;7.42;96.88;97949.81;5030345;28;20465;-70
2023/04/17 04:32:08;;;;;;;0.20;0.20;;;;;;;7.38;96.88;97951.94;5030839;28;20054;-70
2023/04/17 04:34:40;;;;;;;0.15;0.15;;;;;;;7.36;96.97;97950.47;5026788;28;20088;-70
2023/04/17 04:37:08;;;;;;;0.25;0.25;;;;;;;7.31;96.84;97947.47;5027106;28;20081;-70
2023/04/17 04:39:39;;;;;;;0.15;0.15;;;;;;;7.32;96.96;97955.28;5020100;28;20042;-70
2023/04/17 04:42:09;;;;;;;0.25;0.25;;;;;;;7.35;97.16;97946.16;5028928;28;20046;-70
2023/04/17 04:44:49;;;;;;;0.30;0.30;;;;;;;7.40;97.18;97945.66;5037846;28;20045;-70
2023/04/17 04:47:21;;;;;;;0.30;0.30;;;;;;;7.38;96.99;97954.59;5026408;28;20129;-70
2023/04/17 04:49:49;;;;;;;0.20;0.20;;;;;;;7.44;96.97;97960.25;5015198;28;20050;-70
2023/04/17 04:52:20;;;;;;;0.20;0.20;;;;;;;7.39;96.91;97960.75;5036095;28;20048;-70
2023/04/17 04:54:49;;;;;;;0.55;0.55;;;;;;;7.44;96.61;97960.25;5033778;28;20083;-70
2023/04/17 04:57:17;;;;;;;0.35;0.35;;;;;;;7.46;96.53;97961.75;5024418;28;20112;-70
2023/04/17 04:59:46;;;;;;;0.20;0.20;;;;;;;7.42;96.66;97963.06;5030121;28;20045;-70
2023/04/17 05:02:36;;;;;;;0.28;0.28;;;;;;;7.45;96.55;97965.41;5029997;28;20143;-70
2023/04/17 05:05:09;;;;;;;0.43;0.43;;;;;;;7.43;96.49;97963.91;5026101;28;20053;-71
2023/04/17 05:07:37;;;;;;;0.30;0.30;;;;;;;7.37;96.55;97970.72;5024749;28;20132;-71
2023/04/17 05:10:09;;;;;;;0.40;0.40;;;;;;;7.45;96.31;97969.88;5024124;28;20722;-71
2023/04/17 05:12:41;;;;;;;0.30;0.30;;;;;;;7.45;96.35;97970.72;5028190;28;20058;-70
2023/04/17 05:15:11;;;;;;;0.60;0.60;;;;;;;7.45;96.43;97972.53;5025045;28;20083;-71
2023/04/17 05:17:40;;;;;;;0.20;0.20;;;;;;;7.41;96.22;97980.00;5029156;28;20133;-71
2023/04/17 05:20:09;;;;;;;0.32;0.32;;;;;;;7.41;96.25;97989.78;5027239;28;20046;-71
2023/04/17 05:22:44;;;;;;;0.28;0.28;;;;;;;7.46;96.46;97982.19;5025767;28;20055;-71
2023/04/17 05:25:13;;;;;;;0.20;0.20;;;;;;;7.30;96.29;97988.28;5024403;28;20049;-70
2023/04/17 05:27:41;;;;;;;0.30;0.30;;;;;;;7.32;96.54;97991.63;5029125;28;20053;-71
2023/04/17 05:30:11;;;;;;;0.35;0.35;;;;;;;7.35;96.58;97992.13;5030196;28;20068;-71
2023/04/17 05:32:42;;;;;;;0.20;0.20;;;;;;;7.33;96.33;97985.31;5030386;28;20300;-71
2023/04/17 05:35:30;;;;;;;0.52;0.52;;;;;;;7.29;96.73;97989.28;5028847;28;20103;-70
2023/04/17 05:37:58;;;;;;;0.35;0.35;;;;;;;7.31;96.52;97989.94;5024094;28;20528;-71
2023/04/17 05:40:26;;;;;;;0.30;0.30;;;;;;;7.36;96.66;97999.09;5019668;28;20061;-70
2023/04/17 05:42:54;;;;;;;0.40;0.40;;;;;;;7.32;96.72;97988.97;5025479;28;20137;-70
2023/04/17 05:45:21;;;;;;;0.20;0.20;;;;;;;7.30;96.72;97994.44;5029848;28;20047;-71
2023/04/17 05:47:53;;;;;;;0.25;0.25;;;;;;;7.36;96.71;98001.75;5023015;28;20543;-69
2023/04/17 05:50:21;;;;;;;0.20;0.20;;;;;;;7.32;96.32;98003.06;5028913;28;20096;-69
2023/04/17 05:52:48;;;;;;;0.10;0.10;;;;;;;7.37;95.91;97997.28;5028868;28;20053;-69
2023/04/17 05:55:18;;;;;;;0.35;0.35;;;;;;;7.35;96.19;98000.09;5024382;28;20398;-69
2023/04/17 05:57:48;;;;;;;0.25;0.25;;;;;;;7.29;96.53;98002.56;5029519;28;20045;-69
2023/04/17 06:00:16;;;;;;;0.20;0.20;;;;;;;7.35;96.58;98002.75;5030642;28;20037;-69
2023/04/17 06:02:51;;;;;;;0.20;0.20;;;;;;;7.43;96.50;97999.25;5028393;28;20516;-69
2023/04/17 06:05:29;;;;;;;0.20;0.20;;;;;;;7.47;96.39;98005.91;5025979;28;20064;-70
2023/04/17 06:07:57;;;;;;;0.20;0.20;;;;;;;7.48;96.26;97993.44;5028970;28;20117;-69
2023/04/17 06:10:25;;;;;;;0.25;0.25;;;;;;;7.51;96.19;97999.25;5022907;28;20043;-69
2023/04/17 06:12:53;;;;;;;0.32;0.32;;;;;;;7.45;96.25;98007.91;5026877;28;20068;-69
2023/04/17 06:15:21;;;;;;;0.22;0.22;;;;;;;7.48;96.12;98004.06;5029495;28;20047;-69
2023/04/17 06:17:49;;;;;;;0.20;0.20;;;;;;;7.44;96.76;98008.88;5028468;28;20050;-70
2023/04/17 06:20:17;;;;;;;0.20;0.20;;;;;;;7.46;96.48;98003.41;5028499;28;20041;-69
2023/04/17 06:22:46;;;;;;;0.25;0.25;;;;;;;7.47;96.50;98005.09;5036240;28;20400;-69
2023/04/17 06:25:15;;;;;;;0.10;0.10;;;;;;;7.49;96.72;98011.88;5042721;28;20048;-69
2023/04/17 06:27:45;;;;;;;0.20;0.20;;;;;;;7.49;96.63;98013.69;5033922;28;20045;-69
2023/04/17 06:30:13;;;;;;;0.20;0.20;;;;;;;7.50;96.78;98013.53;5023784;28;20391;-71
2023/04/17 06:32:49;;;;;;;0.20;0.20;;;;;;;7.50;96.50;98018.84;5028540;28;20526;-69
2023/04/17 06:35:19;;;;;;;0.13;0.13;;;;;;;7.49;96.58;98019.84;5033002;28;20136;-69
2023/04/17 06:37:53;;;;;;;0.20;0.20;;;;;;;7.48;95.74;98014.69;5027943;28;20045;-69
2023/04/17 06:40:20;;;;;;;0.10;0.10;;;;;;;7.38;95.72;98012.19;5033239;28;20046;-68
2023/04/17 06:42:48;;;;;;;0.20;0.20;;;;;;;7.37;96.35;98008.69;5027209;28;20045;-68
2023/04/17 06:45:20;;;;;;;0.20;0.20;;;;;;;7.30;96.74;98020.16;5032158;28;20095;-69
2023/04/17 06:47:48;;;;;;;0.20;0.20;;;;;;;7.38;96.51;98017.50;5027212;28;20100;-71
2023/04/17 06:50:17;;;;;;;0.20;0.20;;;;;;;7.36;96.46;98020.34;5032794;28;20041;-71
2023/04/17 06:52:44;;;;;;;0.25;0.25;;;;;;;7.36;96.45;98022.16;5033038;28;20056;-69
2023/04/17 06:55:13;;;;;;;0.10;0.10;;;;;;;7.25;96.64;98017.16;5034128;28;20438;-68
2023/04/17 06:57:41;;;;;;;0.32;0.32;;;;;;;7.26;96.49;98026.78;5034647;28;20053;-69
2023/04/17 07:00:10;;;;;;;0.20;0.20;;;;;;;7.27;96.53;98031.09;5034057;28;20095;-69
2023/04/17 07:02:37;;;;;;;0.10;0.10;;;;;;;7.25;96.06;98035.75;5033221;28;20095;-69
2023/04/17 07:05:06;;;;;;;0.30;0.30;;;;;;;7.29;96.50;98034.41;5034069;28;20057;-69
2023/04/17 07:07:34;;;;;;;0.20;0.20;;;;;;;7.29;95.35;98037.06;5032389;28;20095;-68
2023/04/17 07:10:02;;;;;;;0.10;0.10;;;;;;;7.32;95.86;98037.59;5034031;28;20065;-68
2023/04/17 07:12:31;;;;;;;0.22;0.22;;;;;;;7.30;96.24;98041.38;5031636;28;20144;-68
2023/04/17 07:14:59;;;;;;;0.25;0.25;;;;;;;7.26;95.84;98038.25;5025423;28;20509;-69
2023/04/17 07:17:27;;;;;;;0.45;0.45;;;;;;;7.33;95.38;98043.72;5027939;28;20037;-68
2023/04/17 07:19:54;;;;;;;0.22;0.22;;;;;;;7.32;96.12;98044.72;5029098;28;20128;-69
2023/04/17 07:22:22;;;;;;;0.40;0.40;;;;;;;7.33;96.70;98044.56;5033956;28;20049;-69
2023/04/17 07:24:53;;;;;;;0.17;0.17;;;;;;;7.38;96.37;98052.00;5033747;28;20060;-69
2023/04/17 07:27:20;;;;;;;0.30;0.30;;;;;;;7.43;96.70;98041.75;5033431;28;20456;-70
2023/04/17 07:29:53;;;;;;;0.17;0.17;;;;;;;7.41;95.85;98049.03;5031216;28;20622;-69
2023/04/17 07:32:23;;;;;;;0.20;0.20;;;;;;;7.42;96.30;98049.88;5030460;28;20061;-69
2023/04/17 07:34:50;;;;;;;0.40;0.40;;;;;;;7.42;95.59;98055.19;5033335;28;20088;-69
2023/04/17 07:37:18;;;;;;;0.17;0.17;;;;;;;7.37;95.67;98059.16;5030610;28;20129;-69
2023/04/17 07:39:48;;;;;;;0.20;0.20;;;;;;;7.41;95.85;98069.47;5015344;28;20100;-69
2023/04/17 07:42:16;;;;;;;0.43;0.43;;;;;;;7.41;95.02;98061.50;5028016;28;20034;-69
2023/04/17 07:44:43;;;;;;;0.10;0.10;;;;;;;7.36;96.12;98067.31;5033366;28;20053;-69
2023/04/17 07:47:12;;;;;;;0.20;0.20;;;;;;;7.35;96.37;98070.94;5033339;28;20516;-69
2023/04/17 07:49:40;;;;;;;0.20;0.20;;;;;;;7.33;96.37;98065.78;5031498;28;20045;-69
2023/04/17 07:52:08;;;;;;;0.10;0.10;;;;;;;7.35;96.93;98065.63;5033313;28;20049;-69
2023/04/17 07:54:35;;;;;;;0.22;0.22;;;;;;;7.45;97.14;98068.16;5032235;28;20133;-69
2023/04/17 07:57:03;;;;;;;0.15;0.15;;;;;;;7.54;97.07;98067.16;5021991;28;20524;-69
2023/04/17 07:59:30;;;;;;;0.20;0.20;;;;;;;7.44;96.63;98069.97;5028686;28;20087;-69
2023/04/17 08:01:58;;;;;;;0.32;0.32;;;;;;;7.57;95.62;98072.16;5032029;28;20048;-71
2023/04/17 08:04:27;;;;;;;0.20;0.20;;;;;;;7.56;96.06;98073.97;5032941;28;20040;-69
2023/04/17 08:06:55;;;;;;;0.17;0.17;;;;;;;7.58;96.49;98079.13;5032767;28;20451;-69
2023/04/17 08:09:22;;;;;;;0.32;0.32;;;;;;;7.61;96.89;98076.13;5032967;28;20048;-71
2023/04/17 08:11:52;;;;;;;0.22;0.22;;;;;;;7.66;95.53;98079.13;5024670;28;20432;-72
2023/04/17 08:14:24;;;;;;;0.10;0.10;;;;;;;7.67;96.01;98078.97;5028222;28;20038;-69
2023/04/17 08:16:52;;;;;;;0.45;0.45;;;;;;;7.77;96.06;98080.66;5029594;28;20433;-70
2023/04/17 08:19:19;;;;;;;0.32;0.32;;;;;;;7.78;94.94;98084.97;5027498;28;20081;-70
2023/04/17 08:21:48;;;;;;;0.10;0.10;;;;;;;7.67;94.88;98091.44;5024537;28;20099;-69
2023/04/17 08:24:16;;;;;;;0.22;0.22;;;;;;;7.72;95.19;98089.09;5025160;28;20072;-69
2023/04/17 08:26:47;;;;;;;0.17;0.17;;;;;;;7.76;95.34;98090.44;5032475;28;20053;-69
2023/04/17 08:29:14;;;;;;;0.22;0.22;;;;;;;7.74;94.24;98087.94;5030692;28;20448;-70
2023/04/17 08:31:42;;;;;;;0.13;0.13;;;;;;;7.71;95.46;98088.25;5034663;28;20060;-69
2023/04/17 08:34:10;;;;;;;0.30;0.30;;;;;;;7.67;94.91;98097.56;5026458;28;20059;-69
2023/04/17 08:36:41;;;;;;;0.32;0.32;;;;;;;7.76;95.03;98098.41;5028008;28;20459;-69
2023/04/17 08:39:10;;;;;;;0.25;0.25;;;;;;;7.59;94.41;98099.38;5029495;28;20041;-70
2023/04/17 08:41:43;;;;;;;0.40;0.40;;;;;;;7.67;94.38;98102.88;5032756;28;20046;-69
2023/04/17 08:44:11;;;;;;;0.20;0.20;;;;;;;7.64;94.42;98105.03;5024540;28;20108;-70
2023/04/17 08:46:39;;;;;;;0.38;0.38;;;;;;;7.63;94.49;98100.72;5033939;28;20092;-69
2023/04/17 08:49:07;;;;;;;0.30;0.30;;;;;;;7.63;95.53;98098.88;5027974;28;20052;-69
2023/04/17 08:51:34;;;;;;;0.40;0.40;;;;;;;7.69;94.79;98100.88;5033668;28;20045;-69
2023/04/17 08:54:02;;;;;;;0.10;0.10;;;;;;;7.76;94.88;98106.38;5032319;28;20067;-70
2023/04/17 08:56:31;;;;;;;0.22;0.22;;;;;;;7.85;95.04;98110.72;5031697;28;20404;-69
2023/04/17 08:58:58;;;;;;;0.85;0.30;;;;;;;7.94;94.92;98104.41;5027822;28;20041;-70
2023/04/17 09:01:27;;;;;;;0.20;0.20;;;;;;;7.96;94.61;98107.72;5030718;28;20045;-70
2023/04/17 09:03:56;;;;;;;0.25;0.25;;;;;;;8.04;93.85;98107.72;5031795;28;20221;-69
2023/04/17 09:06:24;;;;;;;0.10;0.10;;;;;;;8.02;93.94;98108.88;5031852;28;20041;-69
2023/04/17 09:08:56;;;;;;;0.20;0.20;;;;;;;7.96;94.53;98110.38;5031432;28;20061;-68
2023/04/17 09:11:24;;;;;;;0.30;0.30;;;;;;;8.03;94.15;98114.03;5031518;28;20041;-71
2023/04/17 09:13:53;;;;;;;0.20;0.20;;;;;;;8.07;94.08;98109.22;5027266;28;20045;-69
2023/04/17 09:16:23;;;;;;;0.20;0.20;;;;;;;7.99;94.06;98117.22;5025178;28;20104;-69
2023/04/17 09:18:51;;;;;;;0.15;0.15;;;;;;;7.88;94.39;98117.53;5028680;28;20563;-71
2023/04/17 09:21:19;;;;;;;0.20;0.20;;;;;;;7.87;95.12;98115.88;5024496;28;20095;-68
2023/04/17 09:23:48;;;;;;;0.63;0.63;;;;;;;7.69;95.25;98115.97;5025173;28;20100;-69
2023/04/17 09:26:18;;;;;;;0.25;0.25;;;;;;;7.72;95.59;98113.00;5023836;28;20037;-68
2023/04/17 09:29:03;;;;;;;0.20;0.20;;;;;;;7.66;95.34;98111.84;5030538;28;20053;-68
2023/04/17 09:31:33;;;;;;;0.22;0.22;;;;;;;7.74;95.64;98114.50;5020549;28;20100;-71
2023/04/17 09:34:02;;;;;;;0.10;0.10;;;;;;;7.77;94.99;98120.50;5029938;28;20049;-68
2023/04/17 09:36:30;;;;;;;0.20;0.20;;;;;;;7.73;95.58;98119.97;5026476;28;20072;-71
2023/04/17 09:38:59;;;;;;;0.20;0.20;;;;;;;7.66;95.55;98127.78;5028605;28;20045;-71
2023/04/17 09:41:28;;;;;;;0.13;0.13;;;;;;;7.74;95.61;98121.66;5031438;28;20456;-69
2023/04/17 09:44:00;;;;;;;0.20;0.20;;;;;;;7.78;95.40;98130.13;5027285;28;20108;-69
2023/04/17 09:46:34;;;;;;;0.17;0.17;;;;;;;7.77;96.37;98131.13;5031393;28;20037;-69
2023/04/17 09:49:03;;;;;;;0.32;0.32;;;;;;;7.71;95.68;98133.44;5026848;28;20053;-71
2023/04/17 09:51:30;;;;;;;0.40;0.40;;;;;;;7.78;95.81;98132.78;5031531;28;20493;-69
2023/04/17 09:53:59;;;;;;;0.10;0.10;;;;;;;7.84;95.60;98130.31;5025650;28;20037;-70
2023/04/17 09:56:28;;;;;;;0.20;0.20;;;;;;;7.82;95.77;98134.09;5031234;28;20508;-69
2023/04/17 09:58:57;;;;;;;0.32;0.32;;;;;;;7.92;95.58;98137.44;5031193;28;20408;-69
2023/04/17 10:01:26;;;;;;;0.20;0.20;;;;;;;7.94;94.61;98138.13;5031234;28;20041;-71
2023/04/17 10:03:55;;;;;;;0.22;0.22;;;;;;;7.86;95.01;98133.63;5030945;28;20054;-71
2023/04/17 10:06:23;;;;;;;0.22;0.22;;;;;;;7.90;94.47;98136.78;5028998;28;20047;-68
2023/04/17 10:08:51;;;;;;;0.22;0.22;;;;;;;7.88;94.73;98142.28;5032490;28;20582;-70
2023/04/17 10:11:19;;;;;;;0.25;0.25;;;;;;;7.93;94.18;98136.44;5033004;28;20069;-71
2023/04/17 10:13:52;;;;;;;0.22;0.22;;;;;;;7.81;93.95;98141.25;5030064;28;20107;-68
2023/04/17 10:16:33;;;;;;;0.32;0.32;;;;;;;7.85;93.96;98136.44;5030626;28;20042;-70
2023/04/17 10:19:28;;;;;;;0.20;0.20;;;;;;;7.82;93.63;98139.44;5030067;28;20048;-71
2023/04/17 10:22:31;;;;;;;0.17;0.17;;;;;;;7.84;94.26;98134.78;5023925;28;20053;-70
2023/04/17 10:25:17;;;;;;;0.25;0.25;;;;;;;7.88;94.81;98133.47;5031178;28;20103;-68
2023/04/17 10:27:47;;;;;;;0.40;0.40;;;;;;;7.96;94.30;98136.13;5025900;28;20058;-71
2023/04/17 10:30:15;;;;;;;0.15;0.15;;;;;;;7.93;94.23;98142.59;5025298;28;20087;-68
2023/04/17 10:32:44;;;;;;;0.20;0.20;;;;;;;7.96;94.48;98139.63;5031399;28;20046;-68
2023/04/17 10:35:35;;;;;;;0.20;0.20;;;;;;;7.87;93.71;98139.78;5023086;28;20124;-68
2023/04/17 10:38:04;;;;;;;0.20;0.20;;;;;;;7.87;93.98;98132.63;5026795;28;20084;-68
2023/04/17 10:40:33;;;;;;;0.35;0.35;;;;;;;7.91;93.89;98131.28;5030326;28;20045;-68
2023/04/17 10:43:03;;;;;;;0.20;0.20;;;;;;;7.88;94.02;98136.97;5029161;28;20520;-69
2023/04/17 10:45:53;;;;;;;0.20;0.20;;;;;;;7.74;93.32;98137.59;5029861;28;20049;-69
2023/04/17 10:48:22;;;;;;;0.32;0.32;;;;;;;7.81;93.24;98137.75;5026606;28;20041;-71
2023/04/17 10:50:50;;;;;;;0.20;0.20;;;;;;;7.72;93.04;98137.75;5028542;28;20123;-69
2023/04/17 10:53:43;;;;;;;0.40;0.40;;;;;;;7.67;93.27;98139.25;5026468;28;20386;-72
2023/04/17 10:56:11;;;;;;;0.47;0.47;;;;;;;7.74;93.28;98130.44;5019052;28;20123;-71
2023/04/17 10:58:55;;;;;;;0.32;0.32;;;;;;;7.78;93.09;98127.47;5030992;28;20054;-71
2023/04/17 11:01:25;;;;;;;0.32;0.32;;;;;;;7.77;93.59;98136.44;5028347;28;20037;-72
2023/04/17 11:03:55;;;;;;;0.10;0.10;;;;;;;7.73;93.45;98142.06;5030241;28;20073;-71
2023/04/17 11:06:26;;;;;;;0.32;0.32;;;;;;;7.75;93.24;98136.59;5033373;28;20493;-71
2023/04/17 11:08:55;;;;;;;0.20;0.20;;;;;;;7.66;93.58;98141.06;5034121;28;20040;-69
2023/04/17 11:11:24;;;;;;;0.20;0.20;;;;;;;7.69;93.65;98142.53;5031202;28;20045;-69
2023/04/17 11:14:12;;;;;;;0.32;0.32;;;;;;;7.75;93.91;98136.59;5030733;28;20046;-71
2023/04/17 11:16:42;;;;;;;0.32;0.32;;;;;;;7.73;93.73;98144.72;5029546;28;20389;-69
2023/04/17 11:19:11;;;;;;;0.20;0.20;;;;;;;7.79;93.62;98150.41;5028128;28;20053;-70
2023/04/17 11:21:42;;;;;;;0.32;0.32;;;;;;;7.85;93.84;98144.41;5031558;28;20077;-69
2023/04/17 11:24:10;;;;;;;0.28;0.28;;;;;;;7.81;93.47;98149.22;5031319;28;20107;-71
2023/04/17 11:26:42;;;;;;;0.40;0.40;;;;;;;7.79;93.34;98153.84;5033459;28;20444;-69
2023/04/17 11:29:13;;;;;;;0.32;0.32;;;;;;;7.70;93.48;98152.19;5025574;28;20053;-69
2023/04/17 11:31:41;;;;;;;0.40;0.40;;;;;;;7.56;94.58;98153.66;5029160;28;20099;-70
2023/04/17 11:34:10;;;;;;;0.32;0.32;;;;;;;7.59;94.62;98148.00;5031643;28;20095;-70
2023/04/17 11:36:37;;;;;;;0.43;0.43;;;;;;;7.59;94.79;98153.31;5027942;28;20049;-70
2023/04/17 11:39:07;;;;;;;0.25;0.25;;;;;;;7.52;94.79;98147.00;5032780;28;20068;-69
2023/04/17 11:41:38;;;;;;;0.40;0.40;;;;;;;7.55;94.20;98152.00;5032372;28;20057;-69
2023/04/17 11:44:08;;;;;;;0.40;0.40;;;;;;;7.55;94.11;98144.03;5032060;28;20042;-70
2023/04/17 11:46:35;;;;;;;0.30;0.30;;;;;;;7.58;94.16;98153.50;5033157;28;20109;-69
2023/04/17 11:49:04;;;;;;;0.32;0.32;;;;;;;7.52;94.48;98151.47;5028730;28;20060;-69
2023/04/17 11:51:32;;;;;;;0.30;0.30;;;;;;;7.63;93.76;98145.88;5033388;28;20049;-69
2023/04/17 11:53:59;;;;;;;0.30;0.30;;;;;;;7.63;93.93;98152.00;5023226;28;20045;-69